sensor_id;sensor_type;location;lat;lon;timestamp;pressure;altitude;pressure_sealevel;temperature;humidity
69848;BME280;57143;55.940;37.496;2023-06-14T00:00:22;97674.00;;;13.51;100.00
69848;BME280;57143;55.940;37.496;2023-06-14T00:02:49;97664.00;;;13.42;100.00
69848;BME280;57143;55.940;37.496;2023-06-14T00:05:18;97675.69;;;13.47;100.00
69848;BME280;57143;55.940;37.496;2023-06-14T00:07:45;97678.94;;;13.44;100.00
69848;BME280;57143;55.940;37.496;2023-06-14T00:10:14;97679.75;;;13.45;100.00
69848;BME280;57143;55.940;37.496;2023-06-14T00:12:42;97681.97;;;13.43;100.00
69848;BME280;57143;55.940;37.496;2023-06-14T00:15:09;97656.22;;;13.30;100.00
69848;BME280;57143;55.940;37.496;2023-06-14T00:17:36;97677.91;;;13.40;100.00
69848;BME280;57143;55.940;37.496;2023-06-14T00:20:05;97679.81;;;13.40;100.00
69848;BME280;57143;55.940;37.496;2023-06-14T00:22:35;97658.66;;;13.32;100.00
69848;BME280;57143;55.940;37.496;2023-06-14T00:25:03;97645.34;;;13.30;100.00
69848;BME280;57143;55.940;37.496;2023-06-14T00:27:30;97602.53;;;13.07;100.00
69848;BME280;57143;55.940;37.496;2023-06-14T00:29:57;97631.81;;;13.20;100.00
69848;BME280;57143;55.940;37.496;2023-06-14T00:32:25;97622.06;;;13.14;100.00
69848;BME280;57143;55.940;37.496;2023-06-14T00:34:53;97608.53;;;13.09;100.00
69848;BME280;57143;55.940;37.496;2023-06-14T00:37:20;97622.94;;;13.10;100.00
69848;BME280;57143;55.940;37.496;2023-06-14T00:39:49;97630.03;;;13.01;100.00
69848;BME280;57143;55.940;37.496;2023-06-14T00:42:25;97606.41;;;12.96;100.00
69848;BME280;57143;55.940;37.496;2023-06-14T00:44:52;97540.66;;;12.89;100.00
69848;BME280;57143;55.940;37.496;2023-06-14T00:47:19;97484.66;;;12.88;100.00
69848;BME280;57143;55.940;37.496;2023-06-14T00:49:48;97467.25;;;12.89;100.00
69848;BME280;57143;55.940;37.496;2023-06-14T00:52:17;97433.63;;;12.80;100.00
69848;BME280;57143;55.940;37.496;2023-06-14T00:54:44;97416.50;;;12.79;100.00
69848;BME280;57143;55.940;37.496;2023-06-14T00:57:13;97360.78;;;12.77;100.00
69848;BME280;57143;55.940;37.496;2023-06-14T00:59:42;97317.84;;;12.79;100.00
69848;BME280;57143;55.940;37.496;2023-06-14T01:02:11;97286.31;;;12.78;100.00
69848;BME280;57143;55.940;37.496;2023-06-14T01:04:39;97277.28;;;12.82;100.00
69848;BME280;57143;55.940;37.496;2023-06-14T01:07:11;97237.09;;;12.79;100.00
69848;BME280;57143;55.940;37.496;2023-06-14T01:09:49;97260.56;;;12.94;100.00
69848;BME280;57143;55.940;37.496;2023-06-14T01:12:29;97270.75;;;13.07;100.00
69848;BME280;57143;55.940;37.496;2023-06-14T01:14:59;97283.06;;;13.42;100.00
69848;BME280;57143;55.940;37.496;2023-06-14T01:17:32;97320.41;;;13.92;100.00
69848;BME280;57143;55.940;37.496;2023-06-14T01:20:01;97363.06;;;14.34;100.00
69848;BME280;57143;55.940;37.496;2023-06-14T01:22:35;97431.00;;;14.76;100.00
69848;BME280;57143;55.940;37.496;2023-06-14T01:25:05;97464.47;;;15.27;100.00
69848;BME280;57143;55.940;37.496;2023-06-14T01:27:33;97505.34;;;15.73;100.00
69848;BME280;57143;55.940;37.496;2023-06-14T01:30:00;97556.75;;;16.11;100.00
69848;BME280;57143;55.940;37.496;2023-06-14T01:32:29;97600.38;;;16.30;100.00
69848;BME280;57143;55.940;37.496;2023-06-14T01:34:57;97612.91;;;15.77;100.00
69848;BME280;57143;55.940;37.496;2023-06-14T01:37:24;97598.44;;;16.58;100.00
69848;BME280;57143;55.940;37.496;2023-06-14T01:39:52;97662.78;;;17.04;100.00
69848;BME280;57143;55.940;37.496;2023-06-14T01:42:22;97745.97;;;17.30;100.00
69848;BME280;57143;55.940;37.496;2023-06-14T01:44:51;97771.72;;;17.16;100.00
69848;BME280;57143;55.940;37.496;2023-06-14T01:47:20;97795.72;;;17.60;100.00
69848;BME280;57143;55.940;37.496;2023-06-14T01:49:47;97839.09;;;17.80;100.00
69848;BME280;57143;55.940;37.496;2023-06-14T01:52:15;97897.03;;;17.87;100.00
69848;BME280;57143;55.940;37.496;2023-06-14T01:54:42;97913.44;;;18.00;100.00
69848;BME280;57143;55.940;37.496;2023-06-14T01:57:09;97959.91;;;18.19;100.00
69848;BME280;57143;55.940;37.496;2023-06-14T01:59:38;97981.56;;;18.78;100.00
69848;BME280;57143;55.940;37.496;2023-06-14T02:02:05;98042.25;;;19.21;100.00
69848;BME280;57143;55.940;37.496;2023-06-14T02:04:32;98087.78;;;19.58;100.00
69848;BME280;57143;55.940;37.496;2023-06-14T02:07:00;98126.13;;;19.93;100.00
69848;BME280;57143;55.940;37.496;2023-06-14T02:09:27;98096.59;;;19.68;100.00
69848;BME280;57143;55.940;37.496;2023-06-14T02:11:54;98151.47;;;20.34;100.00
69848;BME280;57143;55.940;37.496;2023-06-14T02:14:22;98222.47;;;20.63;100.00
69848;BME280;57143;55.940;37.496;2023-06-14T02:16:50;98295.16;;;20.53;100.00
69848;BME280;57143;55.940;37.496;2023-06-14T02:19:19;98229.59;;;20.64;100.00
69848;BME280;57143;55.940;37.496;2023-06-14T02:21:48;98295.13;;;21.23;100.00
69848;BME280;57143;55.940;37.496;2023-06-14T02:24:15;98357.50;;;21.67;100.00
69848;BME280;57143;55.940;37.496;2023-06-14T02:26:42;98349.06;;;21.16;100.00
69848;BME280;57143;55.940;37.496;2023-06-14T02:29:10;98321.19;;;21.09;100.00
69848;BME280;57143;55.940;37.496;2023-06-14T02:31:40;98385.94;;;20.67;100.00
69848;BME280;57143;55.940;37.496;2023-06-14T02:34:09;98313.78;;;20.56;100.00
69848;BME280;57143;55.940;37.496;2023-06-14T02:36:36;98402.81;;;21.35;100.00
69848;BME280;57143;55.940;37.496;2023-06-14T02:39:07;98430.72;;;21.90;100.00
69848;BME280;57143;55.940;37.496;2023-06-14T02:41:36;98471.94;;;21.87;100.00
69848;BME280;57143;55.940;37.496;2023-06-14T02:44:03;98372.59;;;21.13;100.00
69848;BME280;57143;55.940;37.496;2023-06-14T02:46:31;98386.56;;;20.95;100.00
69848;BME280;57143;55.940;37.496;2023-06-14T02:48:58;98463.78;;;21.73;100.00
69848;BME280;57143;55.940;37.496;2023-06-14T02:51:27;98452.22;;;21.23;100.00
69848;BME280;57143;55.940;37.496;2023-06-14T02:53:54;98440.56;;;21.26;100.00
69848;BME280;57143;55.940;37.496;2023-06-14T02:56:21;98456.13;;;21.00;100.00
69848;BME280;57143;55.940;37.496;2023-06-14T02:58:48;98550.16;;;21.51;100.00
69848;BME280;57143;55.940;37.496;2023-06-14T03:01:16;98603.38;;;22.69;100.00
69848;BME280;57143;55.940;37.496;2023-06-14T03:03:43;98658.41;;;23.31;100.00
69848;BME280;57143;55.940;37.496;2023-06-14T03:06:11;98703.31;;;23.36;100.00
69848;BME280;57143;55.940;37.496;2023-06-14T03:08:40;98631.34;;;22.29;100.00
69848;BME280;57143;55.940;37.496;2023-06-14T03:11:07;98660.53;;;23.42;100.00
69848;BME280;57143;55.940;37.496;2023-06-14T03:13:34;98572.00;;;21.70;100.00
69848;BME280;57143;55.940;37.496;2023-06-14T03:16:03;98603.81;;;21.01;100.00
69848;BME280;57143;55.940;37.496;2023-06-14T03:18:30;98614.81;;;21.45;100.00
69848;BME280;57143;55.940;37.496;2023-06-14T03:21:01;98751.31;;;23.49;100.00
69848;BME280;57143;55.940;37.496;2023-06-14T03:23:28;98819.19;;;23.46;100.00
69848;BME280;57143;55.940;37.496;2023-06-14T03:25:57;98666.97;;;22.39;100.00
69848;BME280;57143;55.940;37.496;2023-06-14T03:28:24;98647.34;;;22.10;100.00
69848;BME280;57143;55.940;37.496;2023-06-14T03:30:51;98709.59;;;22.16;100.00
69848;BME280;57143;55.940;37.496;2023-06-14T03:33:18;98667.59;;;21.30;100.00
69848;BME280;57143;55.940;37.496;2023-06-14T03:35:46;98658.81;;;21.95;100.00
69848;BME280;57143;55.940;37.496;2023-06-14T03:38:13;98589.50;;;21.96;100.00
69848;BME280;57143;55.940;37.496;2023-06-14T03:40:40;98651.19;;;22.78;100.00
69848;BME280;57143;55.940;37.496;2023-06-14T03:43:09;98794.94;;;23.52;100.00
69848;BME280;57143;55.940;37.496;2023-06-14T03:45:36;98872.25;;;24.68;100.00
69848;BME280;57143;55.940;37.496;2023-06-14T03:48:04;98924.50;;;25.21;100.00
69848;BME280;57143;55.940;37.496;2023-06-14T03:50:32;98970.81;;;25.37;100.00
69848;BME280;57143;55.940;37.496;2023-06-14T03:52:59;99009.63;;;25.92;100.00
69848;BME280;57143;55.940;37.496;2023-06-14T03:55:27;98919.72;;;24.66;100.00
69848;BME280;57143;55.940;37.496;2023-06-14T03:57:56;98847.03;;;24.44;100.00
69848;BME280;57143;55.940;37.496;2023-06-14T04:00:25;98974.88;;;24.76;100.00
69848;BME280;57143;55.940;37.496;2023-06-14T04:02:53;99050.13;;;25.93;100.00
69848;BME280;57143;55.940;37.496;2023-06-14T04:05:20;99134.50;;;26.55;100.00
69848;BME280;57143;55.940;37.496;2023-06-14T04:07:47;99144.75;;;26.92;100.00
69848;BME280;57143;55.940;37.496;2023-06-14T04:10:16;99127.19;;;27.00;100.00
69848;BME280;57143;55.940;37.496;2023-06-14T04:12:43;99146.81;;;27.24;100.00
69848;BME280;57143;55.940;37.496;2023-06-14T04:15:12;99202.13;;;27.67;100.00
69848;BME280;57143;55.940;37.496;2023-06-14T04:17:41;99193.38;;;27.36;100.00
69848;BME280;57143;55.940;37.496;2023-06-14T04:20:08;99178.34;;;27.08;100.00
69848;BME280;57143;55.940;37.496;2023-06-14T04:22:36;99162.53;;;25.95;100.00
69848;BME280;57143;55.940;37.496;2023-06-14T04:25:04;98870.06;;;24.27;100.00
69848;BME280;57143;55.940;37.496;2023-06-14T04:27:32;98929.19;;;25.37;100.00
69848;BME280;57143;55.940;37.496;2023-06-14T04:30:02;99020.16;;;24.63;100.00
69848;BME280;57143;55.940;37.496;2023-06-14T04:32:30;99025.66;;;25.86;100.00
69848;BME280;57143;55.940;37.496;2023-06-14T04:35:06;99053.69;;;25.64;100.00
69848;BME280;57143;55.940;37.496;2023-06-14T04:37:34;99117.63;;;26.60;100.00
69848;BME280;57143;55.940;37.496;2023-06-14T04:40:06;99096.63;;;26.42;100.00
69848;BME280;57143;55.940;37.496;2023-06-14T04:42:34;99089.00;;;25.13;100.00
69848;BME280;57143;55.940;37.496;2023-06-14T04:45:02;99051.59;;;25.90;100.00
69848;BME280;57143;55.940;37.496;2023-06-14T04:47:30;99114.97;;;26.05;100.00
69848;BME280;57143;55.940;37.496;2023-06-14T04:49:58;99073.53;;;26.50;100.00
69848;BME280;57143;55.940;37.496;2023-06-14T04:52:27;99201.84;;;27.19;100.00
69848;BME280;57143;55.940;37.496;2023-06-14T04:54:55;99094.38;;;26.36;100.00
69848;BME280;57143;55.940;37.496;2023-06-14T04:57:22;98911.59;;;24.70;100.00
69848;BME280;57143;55.940;37.496;2023-06-14T04:59:51;99113.78;;;26.44;100.00
69848;BME280;57143;55.940;37.496;2023-06-14T05:02:21;99123.13;;;26.10;100.00
69848;BME280;57143;55.940;37.496;2023-06-14T05:04:50;99108.22;;;26.73;100.00
69848;BME280;57143;55.940;37.496;2023-06-14T05:07:18;99114.16;;;26.05;100.00
69848;BME280;57143;55.940;37.496;2023-06-14T05:09:47;99190.75;;;27.40;100.00
69848;BME280;57143;55.940;37.496;2023-06-14T05:12:14;99182.22;;;26.95;100.00
69848;BME280;57143;55.940;37.496;2023-06-14T05:14:44;99181.97;;;27.29;100.00
69848;BME280;57143;55.940;37.496;2023-06-14T05:17:11;99200.00;;;26.36;100.00
69848;BME280;57143;55.940;37.496;2023-06-14T05:19:38;99014.28;;;25.71;100.00
69848;BME280;57143;55.940;37.496;2023-06-14T05:22:06;99141.78;;;26.68;100.00
69848;BME280;57143;55.940;37.496;2023-06-14T05:24:33;99124.16;;;26.64;100.00
69848;BME280;57143;55.940;37.496;2023-06-14T05:27:02;99065.34;;;25.78;100.00
69848;BME280;57143;55.940;37.496;2023-06-14T05:29:29;99120.88;;;26.62;100.00
69848;BME280;57143;55.940;37.496;2023-06-14T05:31:57;99219.81;;;27.51;100.00
69848;BME280;57143;55.940;37.496;2023-06-14T05:34:24;99138.09;;;26.18;100.00
69848;BME280;57143;55.940;37.496;2023-06-14T05:36:51;99238.63;;;27.54;100.00
69848;BME280;57143;55.940;37.496;2023-06-14T05:39:18;99231.09;;;27.25;100.00
69848;BME280;57143;55.940;37.496;2023-06-14T05:41:46;99187.75;;;26.66;100.00
69848;BME280;57143;55.940;37.496;2023-06-14T05:44:14;99260.81;;;28.03;100.00
69848;BME280;57143;55.940;37.496;2023-06-14T05:46:41;99305.78;;;28.47;100.00
69848;BME280;57143;55.940;37.496;2023-06-14T05:49:09;99314.91;;;27.82;100.00
69848;BME280;57143;55.940;37.496;2023-06-14T05:51:37;99365.47;;;27.63;100.00
69848;BME280;57143;55.940;37.496;2023-06-14T05:54:04;99382.06;;;28.09;100.00
69848;BME280;57143;55.940;37.496;2023-06-14T05:56:31;99241.41;;;25.94;100.00
69848;BME280;57143;55.940;37.496;2023-06-14T05:58:59;99265.94;;;26.09;100.00
69848;BME280;57143;55.940;37.496;2023-06-14T06:01:27;99227.38;;;25.14;100.00
69848;BME280;57143;55.940;37.496;2023-06-14T06:03:54;99207.53;;;24.03;100.00
69848;BME280;57143;55.940;37.496;2023-06-14T06:06:21;99240.13;;;25.58;100.00
69848;BME280;57143;55.940;37.496;2023-06-14T06:08:48;99302.56;;;26.03;100.00
69848;BME280;57143;55.940;37.496;2023-06-14T06:11:16;99341.75;;;26.10;100.00
69848;BME280;57143;55.940;37.496;2023-06-14T06:13:43;99264.63;;;25.39;100.00
69848;BME280;57143;55.940;37.496;2023-06-14T06:16:10;99336.19;;;26.01;100.00
69848;BME280;57143;55.940;37.496;2023-06-14T06:18:39;99352.53;;;25.94;100.00
69848;BME280;57143;55.940;37.496;2023-06-14T06:21:06;99401.72;;;26.71;100.00
69848;BME280;57143;55.940;37.496;2023-06-14T06:23:33;99295.50;;;25.63;100.00
69848;BME280;57143;55.940;37.496;2023-06-14T06:26:01;99430.66;;;26.53;100.00
69848;BME280;57143;55.940;37.496;2023-06-14T06:28:28;99381.72;;;25.10;100.00
69848;BME280;57143;55.940;37.496;2023-06-14T06:30:55;99402.69;;;26.49;100.00
69848;BME280;57143;55.940;37.496;2023-06-14T06:33:23;99325.59;;;24.74;100.00
69848;BME280;57143;55.940;37.496;2023-06-14T06:35:52;99229.06;;;24.76;100.00
69848;BME280;57143;55.940;37.496;2023-06-14T06:38:19;99235.97;;;24.56;100.00
69848;BME280;57143;55.940;37.496;2023-06-14T06:40:46;99419.72;;;26.05;100.00
69848;BME280;57143;55.940;37.496;2023-06-14T06:43:13;99494.94;;;26.68;100.00
69848;BME280;57143;55.940;37.496;2023-06-14T06:45:42;99500.44;;;27.19;100.00
69848;BME280;57143;55.940;37.496;2023-06-14T06:48:10;99398.94;;;26.02;100.00
69848;BME280;57143;55.940;37.496;2023-06-14T06:50:37;99404.59;;;26.91;100.00
69848;BME280;57143;55.940;37.496;2023-06-14T06:53:06;99494.28;;;26.54;100.00
69848;BME280;57143;55.940;37.496;2023-06-14T06:55:33;99476.13;;;25.36;100.00
69848;BME280;57143;55.940;37.496;2023-06-14T06:58:03;99416.72;;;24.97;100.00
69848;BME280;57143;55.940;37.496;2023-06-14T07:00:31;99448.19;;;25.24;100.00
69848;BME280;57143;55.940;37.496;2023-06-14T07:02:58;99471.81;;;25.99;100.00
69848;BME280;57143;55.940;37.496;2023-06-14T07:05:25;99379.25;;;24.56;100.00
69848;BME280;57143;55.940;37.496;2023-06-14T07:07:53;99408.25;;;25.02;100.00
69848;BME280;57143;55.940;37.496;2023-06-14T07:10:21;99417.25;;;25.39;100.00
69848;BME280;57143;55.940;37.496;2023-06-14T07:12:50;99396.88;;;25.43;100.00
69848;BME280;57143;55.940;37.496;2023-06-14T07:15:17;99422.00;;;25.38;100.00
69848;BME280;57143;55.940;37.496;2023-06-14T07:17:44;99401.88;;;25.33;100.00
69848;BME280;57143;55.940;37.496;2023-06-14T07:20:12;99364.53;;;25.39;100.00
69848;BME280;57143;55.940;37.496;2023-06-14T07:22:41;99381.31;;;26.15;100.00
69848;BME280;57143;55.940;37.496;2023-06-14T07:25:09;99403.28;;;26.89;100.00
69848;BME280;57143;55.940;37.496;2023-06-14T07:27:40;99442.63;;;27.25;100.00
69848;BME280;57143;55.940;37.496;2023-06-14T07:30:09;99429.84;;;26.61;100.00
69848;BME280;57143;55.940;37.496;2023-06-14T07:32:36;99378.19;;;26.26;100.00
69848;BME280;57143;55.940;37.496;2023-06-14T07:35:04;99369.97;;;26.63;100.00
69848;BME280;57143;55.940;37.496;2023-06-14T07:37:32;99393.00;;;25.70;100.00
69848;BME280;57143;55.940;37.496;2023-06-14T07:39:59;99397.44;;;25.71;100.00
69848;BME280;57143;55.940;37.496;2023-06-14T07:42:29;99428.78;;;25.32;100.00
69848;BME280;57143;55.940;37.496;2023-06-14T07:44:57;99402.44;;;25.13;100.00
69848;BME280;57143;55.940;37.496;2023-06-14T07:47:24;99411.56;;;26.08;100.00
69848;BME280;57143;55.940;37.496;2023-06-14T07:49:52;99324.03;;;25.38;100.00
69848;BME280;57143;55.940;37.496;2023-06-14T07:52:19;99371.19;;;26.19;100.00
69848;BME280;57143;55.940;37.496;2023-06-14T07:54:46;99367.22;;;25.61;100.00
69848;BME280;57143;55.940;37.496;2023-06-14T07:57:14;99330.81;;;24.45;100.00
69848;BME280;57143;55.940;37.496;2023-06-14T07:59:41;99332.09;;;25.99;100.00
69848;BME280;57143;55.940;37.496;2023-06-14T08:02:09;99424.63;;;26.76;100.00
69848;BME280;57143;55.940;37.496;2023-06-14T08:04:37;99440.00;;;26.74;100.00
69848;BME280;57143;55.940;37.496;2023-06-14T08:07:04;99473.50;;;26.94;100.00
69848;BME280;57143;55.940;37.496;2023-06-14T08:09:31;99486.81;;;27.44;100.00
69848;BME280;57143;55.940;37.496;2023-06-14T08:11:58;99422.63;;;26.60;100.00
69848;BME280;57143;55.940;37.496;2023-06-14T08:14:25;99390.13;;;25.92;100.00
69848;BME280;57143;55.940;37.496;2023-06-14T08:16:53;99419.81;;;26.85;100.00
69848;BME280;57143;55.940;37.496;2023-06-14T08:19:21;99427.19;;;27.45;100.00
69848;BME280;57143;55.940;37.496;2023-06-14T08:21:48;99406.66;;;26.14;100.00
69848;BME280;57143;55.940;37.496;2023-06-14T08:24:16;99392.59;;;26.36;100.00
69848;BME280;57143;55.940;37.496;2023-06-14T08:26:44;99412.88;;;26.11;100.00
69848;BME280;57143;55.940;37.496;2023-06-14T08:29:12;99449.63;;;26.42;100.00
69848;BME280;57143;55.940;37.496;2023-06-14T08:31:39;99447.34;;;26.78;100.00
69848;BME280;57143;55.940;37.496;2023-06-14T08:34:06;99432.16;;;26.33;100.00
69848;BME280;57143;55.940;37.496;2023-06-14T08:36:35;99411.34;;;26.56;100.00
69848;BME280;57143;55.940;37.496;2023-06-14T08:39:02;99396.47;;;26.01;100.00
69848;BME280;57143;55.940;37.496;2023-06-14T08:41:29;99400.56;;;26.63;100.00
69848;BME280;57143;55.940;37.496;2023-06-14T08:43:57;99411.66;;;26.63;100.00
69848;BME280;57143;55.940;37.496;2023-06-14T08:46:26;99422.97;;;25.98;100.00
69848;BME280;57143;55.940;37.496;2023-06-14T08:48:55;99322.78;;;25.61;100.00
69848;BME280;57143;55.940;37.496;2023-06-14T08:51:25;99246.13;;;23.99;100.00
69848;BME280;57143;55.940;37.496;2023-06-14T08:53:55;99142.91;;;23.85;100.00
69848;BME280;57143;55.940;37.496;2023-06-14T08:56:25;99173.31;;;24.30;100.00
69848;BME280;57143;55.940;37.496;2023-06-14T08:58:54;99226.06;;;24.64;100.00
69848;BME280;57143;55.940;37.496;2023-06-14T09:01:22;99233.63;;;24.72;100.00
69848;BME280;57143;55.940;37.496;2023-06-14T09:03:50;99233.16;;;24.78;100.00
69848;BME280;57143;55.940;37.496;2023-06-14T09:06:17;99261.31;;;24.33;100.00
69848;BME280;57143;55.940;37.496;2023-06-14T09:08:46;99123.78;;;23.45;100.00
69848;BME280;57143;55.940;37.496;2023-06-14T09:11:16;99097.06;;;23.40;100.00
69848;BME280;57143;55.940;37.496;2023-06-14T09:13:45;99159.03;;;23.61;100.00
69848;BME280;57143;55.940;37.496;2023-06-14T09:16:12;99147.00;;;23.88;100.00
69848;BME280;57143;55.940;37.496;2023-06-14T09:18:40;99183.94;;;24.06;100.00
69848;BME280;57143;55.940;37.496;2023-06-14T09:21:10;99192.94;;;23.45;100.00
69848;BME280;57143;55.940;37.496;2023-06-14T09:23:39;99249.19;;;23.54;100.00
69848;BME280;57143;55.940;37.496;2023-06-14T09:26:07;99244.63;;;23.58;100.00
69848;BME280;57143;55.940;37.496;2023-06-14T09:28:41;99253.69;;;23.72;100.00
69848;BME280;57143;55.940;37.496;2023-06-14T09:31:09;99260.69;;;23.20;100.00
69848;BME280;57143;55.940;37.496;2023-06-14T09:33:37;99237.22;;;22.82;100.00
69848;BME280;57143;55.940;37.496;2023-06-14T09:36:04;99163.91;;;23.20;100.00
69848;BME280;57143;55.940;37.496;2023-06-14T09:38:31;99131.91;;;23.41;100.00
69848;BME280;57143;55.940;37.496;2023-06-14T09:41:03;99155.00;;;23.23;100.00
69848;BME280;57143;55.940;37.496;2023-06-14T09:43:30;99168.41;;;23.30;100.00
69848;BME280;57143;55.940;37.496;2023-06-14T09:46:03;99176.34;;;23.67;100.00
69848;BME280;57143;55.940;37.496;2023-06-14T09:48:31;99236.16;;;23.98;100.00
69848;BME280;57143;55.940;37.496;2023-06-14T09:50:59;99250.81;;;24.21;100.00
69848;BME280;57143;55.940;37.496;2023-06-14T09:53:29;99294.81;;;24.23;100.00
69848;BME280;57143;55.940;37.496;2023-06-14T09:55:57;99265.03;;;24.06;100.00
69848;BME280;57143;55.940;37.496;2023-06-14T09:58:26;99198.22;;;23.77;100.00
69848;BME280;57143;55.940;37.496;2023-06-14T10:00:55;99242.56;;;23.85;100.00
69848;BME280;57143;55.940;37.496;2023-06-14T10:03:28;99225.94;;;23.85;100.00
69848;BME280;57143;55.940;37.496;2023-06-14T10:05:55;99180.03;;;23.40;100.00
69848;BME280;57143;55.940;37.496;2023-06-14T10:08:27;99201.59;;;23.30;100.00
69848;BME280;57143;55.940;37.496;2023-06-14T10:10:58;99126.88;;;23.08;100.00
69848;BME280;57143;55.940;37.496;2023-06-14T10:13:26;99136.06;;;22.95;100.00
69848;BME280;57143;55.940;37.496;2023-06-14T10:16:00;99181.63;;;23.33;100.00
69848;BME280;57143;55.940;37.496;2023-06-14T10:18:45;99242.72;;;22.82;100.00
69848;BME280;57143;55.940;37.496;2023-06-14T10:21:21;99216.94;;;23.00;100.00
69848;BME280;57143;55.940;37.496;2023-06-14T10:23:50;99211.03;;;23.51;100.00
69848;BME280;57143;55.940;37.496;2023-06-14T10:26:22;99174.88;;;23.47;100.00
69848;BME280;57143;55.940;37.496;2023-06-14T10:28:57;99187.88;;;23.38;100.00
69848;BME280;57143;55.940;37.496;2023-06-14T10:31:40;99118.25;;;23.23;100.00
69848;BME280;57143;55.940;37.496;2023-06-14T10:34:10;99128.56;;;23.53;100.00
69848;BME280;57143;55.940;37.496;2023-06-14T10:36:38;99158.22;;;23.61;100.00
69848;BME280;57143;55.940;37.496;2023-06-14T10:39:08;99186.91;;;23.65;100.00
69848;BME280;57143;55.940;37.496;2023-06-14T10:41:38;99126.81;;;23.21;100.00
69848;BME280;57143;55.940;37.496;2023-06-14T10:44:31;99196.91;;;23.52;100.00
69848;BME280;57143;55.940;37.496;2023-06-14T10:46:59;99155.53;;;23.47;100.00
69848;BME280;57143;55.940;37.496;2023-06-14T10:49:42;99183.59;;;23.85;100.00
69848;BME280;57143;55.940;37.496;2023-06-14T10:52:11;99163.66;;;23.66;100.00
69848;BME280;57143;55.940;37.496;2023-06-14T10:55:07;99190.75;;;23.55;100.00
69848;BME280;57143;55.940;37.496;2023-06-14T10:57:42;99125.56;;;22.83;100.00
69848;BME280;57143;55.940;37.496;2023-06-14T11:00:10;99144.44;;;23.25;100.00
69848;BME280;57143;55.940;37.496;2023-06-14T11:06:13;99131.66;;;23.29;100.00
69848;BME280;57143;55.940;37.496;2023-06-14T11:09:04;99185.22;;;23.55;100.00
69848;BME280;57143;55.940;37.496;2023-06-14T11:11:38;99213.31;;;23.49;100.00
69848;BME280;57143;55.940;37.496;2023-06-14T11:14:06;99220.38;;;23.55;100.00
69848;BME280;57143;55.940;37.496;2023-06-14T11:16:33;99240.09;;;23.40;100.00
69848;BME280;57143;55.940;37.496;2023-06-14T11:19:01;99181.06;;;23.44;100.00
69848;BME280;57143;55.940;37.496;2023-06-14T11:21:32;99166.19;;;23.54;100.00
69848;BME280;57143;55.940;37.496;2023-06-14T11:23:59;99108.88;;;23.54;100.00
69848;BME280;57143;55.940;37.496;2023-06-14T11:26:27;99141.78;;;23.20;100.00
69848;BME280;57143;55.940;37.496;2023-06-14T11:28:58;99139.72;;;23.26;100.00
69848;BME280;57143;55.940;37.496;2023-06-14T11:31:26;99145.91;;;23.23;100.00
69848;BME280;57143;55.940;37.496;2023-06-14T11:33:54;99166.56;;;23.25;100.00
69848;BME280;57143;55.940;37.496;2023-06-14T11:36:23;99166.16;;;23.18;100.00
69848;BME280;57143;55.940;37.496;2023-06-14T11:38:58;99149.06;;;23.52;100.00
69848;BME280;57143;55.940;37.496;2023-06-14T11:41:25;99184.19;;;23.73;100.00
69848;BME280;57143;55.940;37.496;2023-06-14T11:43:53;99179.16;;;23.75;100.00
69848;BME280;57143;55.940;37.496;2023-06-14T11:46:20;99175.47;;;23.58;100.00
69848;BME280;57143;55.940;37.496;2023-06-14T11:48:51;99163.81;;;23.69;100.00
69848;BME280;57143;55.940;37.496;2023-06-14T11:51:19;99162.69;;;23.70;100.00
69848;BME280;57143;55.940;37.496;2023-06-14T11:53:46;99221.47;;;23.32;100.00
69848;BME280;57143;55.940;37.496;2023-06-14T11:56:15;99186.28;;;23.10;100.00
69848;BME280;57143;55.940;37.496;2023-06-14T11:58:43;99193.91;;;23.27;100.00
69848;BME280;57143;55.940;37.496;2023-06-14T12:01:14;99156.63;;;23.38;100.00
69848;BME280;57143;55.940;37.496;2023-06-14T12:03:47;99136.22;;;23.34;100.00
69848;BME280;57143;55.940;37.496;2023-06-14T12:06:15;99167.16;;;23.36;100.00
69848;BME280;57143;55.940;37.496;2023-06-14T12:08:43;99187.47;;;23.31;100.00
69848;BME280;57143;55.940;37.496;2023-06-14T12:11:11;99138.69;;;23.35;100.00
69848;BME280;57143;55.940;37.496;2023-06-14T12:13:41;99219.91;;;23.39;100.00
69848;BME280;57143;55.940;37.496;2023-06-14T12:16:09;99178.25;;;23.22;100.00
69848;BME280;57143;55.940;37.496;2023-06-14T12:18:38;99176.81;;;23.38;100.00
69848;BME280;57143;55.940;37.496;2023-06-14T12:21:06;99182.94;;;23.35;100.00
69848;BME280;57143;55.940;37.496;2023-06-14T12:23:42;99141.34;;;23.27;100.00
69848;BME280;57143;55.940;37.496;2023-06-14T12:26:12;99198.75;;;23.57;100.00
69848;BME280;57143;55.940;37.496;2023-06-14T12:28:41;99217.72;;;23.28;100.00
69848;BME280;57143;55.940;37.496;2023-06-14T12:31:10;99224.22;;;23.32;100.00
69848;BME280;57143;55.940;37.496;2023-06-14T12:33:38;99232.13;;;23.38;100.00
69848;BME280;57143;55.940;37.496;2023-06-14T12:36:07;99245.72;;;23.48;100.00
69848;BME280;57143;55.940;37.496;2023-06-14T12:38:35;99224.34;;;23.62;100.00
69848;BME280;57143;55.940;37.496;2023-06-14T12:41:03;99182.47;;;23.55;100.00
69848;BME280;57143;55.940;37.496;2023-06-14T12:43:30;99163.09;;;23.55;100.00
69848;BME280;57143;55.940;37.496;2023-06-14T12:45:59;99186.47;;;23.49;100.00
69848;BME280;57143;55.940;37.496;2023-06-14T12:48:27;99193.06;;;23.62;100.00
69848;BME280;57143;55.940;37.496;2023-06-14T12:50:55;99149.22;;;23.77;100.00